createdAt,value
2018-02-24T00:00:03.693Z,1022.56
2018-02-24T00:01:13.652Z,1022.57
2018-02-24T00:02:23.599Z,1022.55
2018-02-24T00:03:33.547Z,1022.54
2018-02-24T00:04:43.510Z,1022.58
2018-02-24T00:05:53.496Z,1022.6
2018-02-24T00:07:03.453Z,1022.58
2018-02-24T00:08:12.892Z,1022.57
2018-02-24T00:09:22.851Z,1022.57
2018-02-24T00:10:32.804Z,1022.57
2018-02-24T00:11:42.762Z,1022.54
2018-02-24T00:12:52.730Z,1022.57
2018-02-24T00:14:02.430Z,1022.56
2018-02-24T00:15:12.391Z,1022.58
2018-02-24T00:16:22.079Z,1022.54
2018-02-24T00:17:31.514Z,1022.55
2018-02-24T00:18:41.210Z,1022.54
2018-02-24T00:19:51.182Z,1022.54
2018-02-24T00:21:00.893Z,1022.57
2018-02-24T00:22:10.585Z,1022.59
2018-02-24T00:23:20.550Z,1022.61
2018-02-24T00:24:30.517Z,1022.57
2018-02-24T00:25:40.468Z,1022.56
2018-02-24T00:26:50.436Z,1022.53
2018-02-24T00:28:00.398Z,1022.54
2018-02-24T00:29:10.109Z,1022.55
2018-02-24T00:30:20.052Z,1022.52
2018-02-24T00:31:29.494Z,1022.56
2018-02-24T00:32:38.923Z,1022.53
2018-02-24T00:33:48.351Z,1022.59
2018-02-24T00:34:58.302Z,1022.5
2018-02-24T00:36:08.250Z,1022.51
2018-02-24T00:37:17.436Z,1022.52
2018-02-24T00:38:27.122Z,1022.58
2018-02-24T00:39:36.810Z,1022.55
2018-02-24T00:40:46.774Z,1022.53
2018-02-24T00:41:56.729Z,1022.47
2018-02-24T00:43:06.676Z,1022.52
2018-02-24T00:44:16.628Z,1022.52
2018-02-24T00:45:25.805Z,1022.49
2018-02-24T00:46:35.762Z,1022.52
2018-02-24T00:47:45.456Z,1022.51
2018-02-24T00:48:54.895Z,1022.48
2018-02-24T00:50:04.651Z,1022.46
2018-02-24T00:51:14.088Z,1022.44
2018-02-24T00:52:24.053Z,1022.43
2018-02-24T00:53:33.758Z,1022.44
2018-02-24T00:54:43.452Z,1022.4
2018-02-24T00:55:53.153Z,1022.46
2018-02-24T00:57:02.842Z,1022.4
2018-02-24T00:58:12.038Z,1022.39
2018-02-24T00:59:21.997Z,1022.38
2018-02-24T01:00:32.003Z,1022.33
2018-02-24T01:01:41.441Z,1022.3
2018-02-24T01:02:51.405Z,1022.34
2018-02-24T01:04:01.359Z,1022.33
2018-02-24T01:05:10.798Z,1022.36
2018-02-24T01:06:20.483Z,1022.36
2018-02-24T01:07:30.427Z,1022.33
2018-02-24T01:08:40.113Z,1022.34
2018-02-24T01:09:50.072Z,1022.3
2018-02-24T01:10:59.252Z,1022.33
2018-02-24T01:12:09.198Z,1022.33
2018-02-24T01:13:18.904Z,1022.28
2018-02-24T01:14:28.875Z,1022.3
2018-02-24T01:15:38.840Z,1022.34
2018-02-24T01:16:48.797Z,1022.29
2018-02-24T01:17:58.752Z,1022.26
2018-02-24T01:19:08.725Z,1022.22
2018-02-24T01:20:18.438Z,1022.23
2018-02-24T01:21:27.873Z,1022.15
2018-02-24T01:22:37.572Z,1022.16
2018-02-24T01:23:47.523Z,1022.17
2018-02-24T01:24:57.476Z,1022.13
2018-02-24T01:26:07.173Z,1022.16
2018-02-24T01:27:16.866Z,1022.17
2018-02-24T01:28:26.807Z,1022.18
2018-02-24T01:29:36.244Z,1022.19
2018-02-24T01:30:45.955Z,1022.22
2018-02-24T01:31:55.922Z,1022.18
2018-02-24T01:33:05.613Z,1022.24
2018-02-24T01:34:15.608Z,1022.24
2018-02-24T01:35:25.306Z,1022.2
2018-02-24T01:36:35.271Z,1022.23
2018-02-24T01:37:44.967Z,1022.24
2018-02-24T01:38:54.915Z,1022.26
2018-02-24T01:40:04.407Z,1022.29
2018-02-24T01:41:14.360Z,1022.32
2018-02-24T01:42:24.067Z,1022.27
2018-02-24T01:43:33.765Z,1022.27
2018-02-24T01:44:43.459Z,1022.32
2018-02-24T01:45:53.151Z,1022.34
2018-02-24T01:47:03.122Z,1022.33
2018-02-24T01:48:12.812Z,1022.3
2018-02-24T01:49:22.503Z,1022.24
2018-02-24T01:50:32.195Z,1022.25
2018-02-24T01:51:41.875Z,1022.26
2018-02-24T01:52:51.046Z,1022.28
2018-02-24T01:54:00.492Z,1022.27
2018-02-24T01:55:10.192Z,1022.25
2018-02-24T01:56:20.151Z,1022.25
2018-02-24T01:57:30.093Z,1022.25
2018-02-24T01:58:40.058Z,1022.24
2018-02-24T01:59:49.742Z,1022.25
2018-02-24T02:00:59.432Z,1022.25
2018-02-24T02:02:09.379Z,1022.25
2018-02-24T02:03:19.074Z,1022.22
2018-02-24T02:04:29.037Z,1022.21
2018-02-24T02:05:39.004Z,1022.2
2018-02-24T02:06:48.445Z,1022.18
2018-02-24T02:07:57.882Z,1022.21
2018-02-24T02:09:07.319Z,1022.22
2018-02-24T02:10:17.016Z,1022.16
2018-02-24T02:11:26.965Z,1022.21
2018-02-24T02:12:36.678Z,1022.27
2018-02-24T02:13:46.626Z,1022.3
2018-02-24T02:14:56.572Z,1022.24
2018-02-24T02:16:06.013Z,1022.31
2018-02-24T02:17:15.968Z,1022.18
2018-02-24T02:18:25.665Z,1022.19
2018-02-24T02:19:35.612Z,1022.15
2018-02-24T02:20:45.037Z,1022.2
2018-02-24T02:21:53.948Z,1022.17
2018-02-24T02:23:03.902Z,1022.18
2018-02-24T02:24:13.610Z,1022.16
2018-02-24T02:25:23.576Z,1022.15
2018-02-24T02:26:33.277Z,1022.18
2018-02-24T02:27:43.238Z,1022.14
2018-02-24T02:28:52.936Z,1022.15
2018-02-24T02:30:02.648Z,1022.18
2018-02-24T02:31:12.623Z,1022.22
2018-02-24T02:32:22.585Z,1022.17
2018-02-24T02:33:32.544Z,1022.19
2018-02-24T02:34:42.504Z,1022.16
2018-02-24T02:35:52.208Z,1022.2
2018-02-24T02:37:02.187Z,1022.25
2018-02-24T02:38:11.885Z,1022.24
2018-02-24T02:39:21.847Z,1022.23
2018-02-24T02:40:31.819Z,1022.25
2018-02-24T02:41:41.780Z,1022.21
2018-02-24T02:42:51.741Z,1022.22
2018-02-24T02:44:01.224Z,1022.27
2018-02-24T02:45:10.930Z,1022.26
2018-02-24T02:46:20.633Z,1022.29
2018-02-24T02:47:30.584Z,1022.35
2018-02-24T02:48:40.288Z,1022.37
2018-02-24T02:49:50.241Z,1022.34
2018-02-24T02:50:59.938Z,1022.4
2018-02-24T02:52:09.641Z,1022.37
2018-02-24T02:53:19.599Z,1022.37
2018-02-24T02:54:29.312Z,1022.4
2018-02-24T02:55:38.819Z,1022.36
2018-02-24T02:56:48.526Z,1022.33
2018-02-24T02:57:58.230Z,1022.33
2018-02-24T02:59:08.182Z,1022.38
2018-02-24T03:00:17.881Z,1022.43
2018-02-24T03:01:27.321Z,1022.46
2018-02-24T03:02:37.277Z,1022.37
2018-02-24T03:03:47.221Z,1022.43
2018-02-24T03:04:57.177Z,1022.47
2018-02-24T03:06:06.424Z,1022.38
2018-02-24T03:07:16.130Z,1022.4
2018-02-24T03:08:25.828Z,1022.42
2018-02-24T03:09:35.522Z,1022.39
2018-02-24T03:10:45.475Z,1022.39
2018-02-24T03:11:55.159Z,1022.4
2018-02-24T03:13:05.117Z,1022.39
2018-02-24T03:14:14.832Z,1022.37
2018-02-24T03:15:24.537Z,1022.39
2018-02-24T03:16:33.973Z,1022.45
2018-02-24T03:17:43.673Z,1022.48
2018-02-24T03:18:53.364Z,1022.43
2018-02-24T03:20:02.807Z,1022.4
2018-02-24T03:21:11.991Z,1022.41
2018-02-24T03:22:21.422Z,1022.42
2018-02-24T03:23:31.131Z,1022.4
2018-02-24T03:24:40.844Z,1022.37
2018-02-24T03:25:50.800Z,1022.35
2018-02-24T03:27:00.748Z,1022.29
2018-02-24T03:28:10.452Z,1022.29
2018-02-24T03:29:20.407Z,1022.27
2018-02-24T03:30:29.584Z,1022.28
2018-02-24T03:31:39.035Z,1022.3
2018-02-24T03:32:48.729Z,1022.32
2018-02-24T03:33:58.692Z,1022.31
2018-02-24T03:35:08.390Z,1022.34
2018-02-24T03:36:18.340Z,1022.36
2018-02-24T03:37:28.287Z,1022.4
2018-02-24T03:38:38.233Z,1022.41
2018-02-24T03:39:47.689Z,1022.41
2018-02-24T03:40:57.643Z,1022.37
2018-02-24T03:42:07.337Z,1022.35
2018-02-24T03:43:17.295Z,1022.39
2018-02-24T03:44:26.740Z,1022.41
2018-02-24T03:45:36.711Z,1022.38
2018-02-24T03:46:46.667Z,1022.37
2018-02-24T03:47:56.614Z,1022.42
2018-02-24T03:49:06.568Z,1022.42
2018-02-24T03:50:16.517Z,1022.4
2018-02-24T03:51:26.208Z,1022.44
2018-02-24T03:52:36.149Z,1022.42
2018-02-24T03:53:45.847Z,1022.43
2018-02-24T03:54:55.543Z,1022.46
2018-02-24T03:56:04.986Z,1022.52
2018-02-24T03:57:14.692Z,1022.52
2018-02-24T03:58:24.725Z,1022.51
2018-02-24T03:59:33.911Z,1022.49
2018-02-24T04:00:43.345Z,1022.51
2018-02-24T04:01:52.520Z,1022.45
2018-02-24T04:03:01.961Z,1022.45
2018-02-24T04:04:11.918Z,1022.43
2018-02-24T04:05:21.872Z,1022.46
2018-02-24T04:06:31.835Z,1022.5
2018-02-24T04:07:41.543Z,1022.51
2018-02-24T04:08:51.527Z,1022.54
2018-02-24T04:10:01.230Z,1022.57
2018-02-24T04:11:11.189Z,1022.61
2018-02-24T04:12:20.621Z,1022.64
2018-02-24T04:13:30.579Z,1022.62
2018-02-24T04:14:40.028Z,1022.58
2018-02-24T04:15:49.721Z,1022.62
2018-02-24T04:16:59.406Z,1022.62
2018-02-24T04:18:09.364Z,1022.63
2018-02-24T04:19:19.314Z,1022.61
2018-02-24T04:20:28.746Z,1022.6
2018-02-24T04:21:38.701Z,1022.63
2018-02-24T04:22:48.652Z,1022.62
2018-02-24T04:23:58.604Z,1022.62
2018-02-24T04:25:08.566Z,1022.63
2018-02-24T04:26:18.277Z,1022.62
2018-02-24T04:27:28.242Z,1022.63
2018-02-24T04:28:37.938Z,1022.66
2018-02-24T04:29:47.888Z,1022.7
2018-02-24T04:30:57.844Z,1022.65
2018-02-24T04:32:07.550Z,1022.72
2018-02-24T04:33:17.251Z,1022.68
2018-02-24T04:34:26.708Z,1022.69
2018-02-24T04:35:36.679Z,1022.72
2018-02-24T04:36:46.373Z,1022.74
2018-02-24T04:37:55.812Z,1022.7
2018-02-24T04:39:05.261Z,1022.72
2018-02-24T04:40:15.216Z,1022.71
2018-02-24T04:41:24.908Z,1022.7
2018-02-24T04:42:34.094Z,1022.7
2018-02-24T04:43:43.828Z,1022.7
2018-02-24T04:44:53.786Z,1022.72
2018-02-24T04:46:03.481Z,1022.76
2018-02-24T04:47:13.437Z,1022.75
2018-02-24T04:48:23.130Z,1022.73
2018-02-24T04:49:33.083Z,1022.75
2018-02-24T04:50:42.527Z,1022.75
2018-02-24T04:51:52.223Z,1022.78
2018-02-24T04:53:01.654Z,1022.77
2018-02-24T04:54:11.090Z,1022.78
2018-02-24T04:55:21.050Z,1022.79
2018-02-24T04:56:30.996Z,1022.73
2018-02-24T04:57:40.701Z,1022.78
2018-02-24T04:58:49.880Z,1022.83
2018-02-24T04:59:59.837Z,1022.87
2018-02-24T05:01:09.787Z,1022.88
2018-02-24T05:02:19.511Z,1022.93
2018-02-24T05:03:29.472Z,1022.94
2018-02-24T05:04:39.425Z,1022.93
2018-02-24T05:05:49.378Z,1022.97
2018-02-24T05:06:59.337Z,1022.95
2018-02-24T05:08:09.038Z,1023.03
2018-02-24T05:09:18.995Z,1023.06
2018-02-24T05:10:28.679Z,1023.08
2018-02-24T05:11:38.114Z,1023.06
2018-02-24T05:12:47.810Z,1023.04
2018-02-24T05:13:57.765Z,1023.13
2018-02-24T05:15:07.209Z,1023.09
2018-02-24T05:16:16.907Z,1023.1
2018-02-24T05:17:26.358Z,1023.06
2018-02-24T05:18:36.311Z,1023.08
2018-02-24T05:19:46.265Z,1023.12
2018-02-24T05:20:55.694Z,1023.13
2018-02-24T05:22:05.655Z,1023.06
2018-02-24T05:23:15.346Z,1023.14
2018-02-24T05:24:25.320Z,1023.12
2018-02-24T05:25:34.754Z,1023.11
2018-02-24T05:26:44.702Z,1023.13
2018-02-24T05:27:54.669Z,1023.14
2018-02-24T05:29:04.364Z,1023.11
2018-02-24T05:30:14.312Z,1023.11
2018-02-24T05:31:24.013Z,1023.15
2018-02-24T05:32:33.700Z,1023.13
2018-02-24T05:33:43.440Z,1023.13
2018-02-24T05:34:52.874Z,1023.13
2018-02-24T05:36:02.840Z,1023.16
2018-02-24T05:37:12.539Z,1023.15
2018-02-24T05:38:22.499Z,1023.12
2018-02-24T05:39:32.189Z,1023.13
2018-02-24T05:40:41.891Z,1023.16
2018-02-24T05:41:51.325Z,1023.14
2018-02-24T05:43:00.497Z,1023.14
2018-02-24T05:44:09.942Z,1023.09
2018-02-24T05:45:19.642Z,1023.11
2018-02-24T05:46:29.343Z,1023.09
2018-02-24T05:47:39.308Z,1023.06
2018-02-24T05:48:49.266Z,1023.11
2018-02-24T05:49:59.214Z,1023.17
2018-02-24T05:51:08.907Z,1023.1
2018-02-24T05:52:18.352Z,1023.14
2018-02-24T05:53:28.308Z,1023.13
2018-02-24T05:54:38.009Z,1023.11
2018-02-24T05:55:47.437Z,1023.14
2018-02-24T05:56:57.399Z,1023.17
2018-02-24T05:58:07.098Z,1023.17
2018-02-24T05:59:17.070Z,1023.18
2018-02-24T06:00:26.772Z,1023.19
2018-02-24T06:01:36.206Z,1023.2
2018-02-24T06:02:45.908Z,1023.2
2018-02-24T06:03:55.869Z,1023.26
2018-02-24T06:05:05.824Z,1023.27
2018-02-24T06:06:15.769Z,1023.28
2018-02-24T06:07:25.465Z,1023.25
2018-02-24T06:08:35.182Z,1023.29
2018-02-24T06:09:44.881Z,1023.28
2018-02-24T06:10:54.933Z,1023.29
2018-02-24T06:12:04.642Z,1023.35
2018-02-24T06:13:14.338Z,1023.33
2018-02-24T06:14:24.298Z,1023.37
2018-02-24T06:15:33.988Z,1023.42
2018-02-24T06:16:43.674Z,1023.39
2018-02-24T06:17:53.643Z,1023.35
2018-02-24T06:19:03.341Z,1023.39
2018-02-24T06:20:13.044Z,1023.41
2018-02-24T06:21:22.592Z,1023.42
2018-02-24T06:22:32.552Z,1023.4
2018-02-24T06:23:42.240Z,1023.39
2018-02-24T06:24:52.197Z,1023.41
2018-02-24T06:26:01.652Z,1023.43
2018-02-24T06:27:11.350Z,1023.46
2018-02-24T06:28:20.522Z,1023.45
2018-02-24T06:29:30.480Z,1023.42
2018-02-24T06:30:40.428Z,1023.52
2018-02-24T06:31:50.381Z,1023.54
2018-02-24T06:33:00.333Z,1023.56
2018-02-24T06:34:10.099Z,1023.52
2018-02-24T06:35:19.857Z,1023.54
2018-02-24T06:36:29.554Z,1023.54
2018-02-24T06:37:39.259Z,1023.56
2018-02-24T06:38:48.960Z,1023.62
2018-02-24T06:39:58.410Z,1023.61
2018-02-24T06:41:08.363Z,1023.63
2018-02-24T06:42:18.314Z,1023.65
2018-02-24T06:43:28.007Z,1023.66
2018-02-24T06:44:37.960Z,1023.68
2018-02-24T06:45:47.910Z,1023.69
2018-02-24T06:46:57.598Z,1023.65
2018-02-24T06:48:07.286Z,1023.71
2018-02-24T06:49:17.007Z,1023.71
2018-02-24T06:50:26.966Z,1023.77
2018-02-24T06:51:36.934Z,1023.78
2018-02-24T06:52:46.901Z,1023.81
2018-02-24T06:53:56.104Z,1023.77
2018-02-24T06:55:05.788Z,1023.89
2018-02-24T06:56:15.485Z,1023.86
2018-02-24T06:57:25.438Z,1023.87
2018-02-24T06:58:34.609Z,1023.92
2018-02-24T06:59:44.304Z,1023.99
2018-02-24T07:00:54.267Z,1023.98
2018-02-24T07:02:03.970Z,1023.97
2018-02-24T07:03:13.676Z,1024.04
2018-02-24T07:04:23.373Z,1024
2018-02-24T07:05:33.075Z,1024.04
2018-02-24T07:06:42.519Z,1024.09
2018-02-24T07:07:51.952Z,1024.12
2018-02-24T07:09:01.383Z,1024.11
2018-02-24T07:10:10.812Z,1024.17
2018-02-24T07:11:20.511Z,1024.15
2018-02-24T07:12:30.460Z,1024.18
2018-02-24T07:13:40.422Z,1024.15
2018-02-24T07:14:50.110Z,1024.2
2018-02-24T07:15:59.817Z,1024.11
2018-02-24T07:17:09.518Z,1024.21
2018-02-24T07:18:19.209Z,1024.17
2018-02-24T07:19:29.091Z,1024.16
2018-02-24T07:20:39.065Z,1024.24
2018-02-24T07:21:48.757Z,1024.18
2018-02-24T07:22:58.455Z,1024.15
2018-02-24T07:24:08.151Z,1024.19
2018-02-24T07:25:18.291Z,1024.17
2018-02-24T07:26:27.980Z,1024.19
2018-02-24T07:27:37.940Z,1024.21
2018-02-24T07:28:47.899Z,1024.28
2018-02-24T07:29:57.590Z,1024.23
2018-02-24T07:31:07.543Z,1024.24
2018-02-24T07:32:17.501Z,1024.23
2018-02-24T07:33:26.950Z,1024.15
2018-02-24T07:34:36.910Z,1024.21
2018-02-24T07:35:46.613Z,1024.23
2018-02-24T07:36:55.534Z,1024.21
2018-02-24T07:38:04.716Z,1024.28
2018-02-24T07:39:14.418Z,1024.25
2018-02-24T07:40:23.856Z,1024.21
2018-02-24T07:41:33.570Z,1024.24
2018-02-24T07:42:43.527Z,1024.16
2018-02-24T07:43:53.243Z,1024.19
2018-02-24T07:45:02.946Z,1024.16
2018-02-24T07:46:12.908Z,1024.16
2018-02-24T07:47:22.861Z,1024.16
2018-02-24T07:48:32.828Z,1024.17
2018-02-24T07:49:42.539Z,1024.19
2018-02-24T07:50:51.978Z,1024.2
2018-02-24T07:52:01.672Z,1024.19
2018-02-24T07:53:11.383Z,1024.17
2018-02-24T07:54:21.339Z,1024.19
2018-02-24T07:55:30.772Z,1024.15
2018-02-24T07:56:40.749Z,1024.19
2018-02-24T07:57:50.725Z,1024.19
2018-02-24T07:59:00.716Z,1024.15
2018-02-24T08:00:10.671Z,1024.17
2018-02-24T08:01:20.357Z,1024.14
2018-02-24T08:02:30.320Z,1024.13
2018-02-24T08:03:40.000Z,1024.01
2018-02-24T08:04:49.959Z,1024.1
2018-02-24T08:05:59.916Z,1024.12
2018-02-24T08:07:09.933Z,1024.13
2018-02-24T08:08:19.643Z,1024.15
2018-02-24T08:09:29.365Z,1024.11
2018-02-24T08:10:39.063Z,1024.16
2018-02-24T08:11:49.021Z,1024.15
2018-02-24T08:12:58.978Z,1024.24
2018-02-24T08:14:08.675Z,1024.21
2018-02-24T08:15:18.639Z,1024.34
2018-02-24T08:16:28.895Z,1024.34
2018-02-24T08:17:38.594Z,1024.41
2018-02-24T08:18:47.775Z,1024.35
2018-02-24T08:19:57.461Z,1024.41
2018-02-24T08:21:07.181Z,1024.39
2018-02-24T08:22:16.894Z,1024.43
2018-02-24T08:23:26.626Z,1024.43
2018-02-24T08:24:36.093Z,1024.41
2018-02-24T08:25:46.068Z,1024.37
2018-02-24T08:26:56.041Z,1024.4
2018-02-24T08:28:05.996Z,1024.36
2018-02-24T08:29:15.708Z,1024.34
2018-02-24T08:30:25.683Z,1024.31
2018-02-24T08:31:35.126Z,1024.34
2018-02-24T08:32:44.834Z,1024.42
2018-02-24T08:33:54.458Z,1024.36
2018-02-24T08:35:04.165Z,1024.36
2018-02-24T08:36:13.880Z,1024.45
2018-02-24T08:37:23.340Z,1024.37
2018-02-24T08:38:33.028Z,1024.48
2018-02-24T08:39:42.726Z,1024.44
2018-02-24T08:40:52.428Z,1024.46
2018-02-24T08:42:02.393Z,1024.46
2018-02-24T08:43:12.375Z,1024.41
2018-02-24T08:44:22.125Z,1024.38
2018-02-24T08:45:32.099Z,1024.44
2018-02-24T08:46:41.807Z,1024.48
2018-02-24T08:47:51.798Z,1024.39
2018-02-24T08:49:01.779Z,1024.41
2018-02-24T08:50:11.749Z,1024.44
2018-02-24T08:51:21.200Z,1024.39
2018-02-24T08:52:30.896Z,1024.48
2018-02-24T08:53:40.874Z,1024.39
2018-02-24T08:54:50.874Z,1024.49
2018-02-24T08:56:00.591Z,1024.37
2018-02-24T08:57:10.289Z,1024.47
2018-02-24T08:58:20.257Z,1024.51
2018-02-24T08:59:29.697Z,1024.5
2018-02-24T09:00:39.405Z,1024.48
2018-02-24T09:01:49.102Z,1024.4
2018-02-24T09:02:58.811Z,1024.45
2018-02-24T09:04:08.254Z,1024.45
2018-02-24T09:05:18.251Z,1024.42
2018-02-24T09:06:27.692Z,1024.49
2018-02-24T09:07:37.144Z,1024.47
2018-02-24T09:08:47.112Z,1024.41
2018-02-24T09:09:56.817Z,1024.27
2018-02-24T09:11:06.512Z,1024.42
2018-02-24T09:12:16.488Z,1024.37
2018-02-24T09:13:26.491Z,1024.44
2018-02-24T09:14:36.204Z,1024.5
2018-02-24T09:15:45.924Z,1024.38
2018-02-24T09:16:55.628Z,1024.45
2018-02-24T09:18:05.361Z,1024.36
2018-02-24T09:19:14.812Z,1024.46
2018-02-24T09:20:24.301Z,1024.56
2018-02-24T09:21:34.273Z,1024.54
2018-02-24T09:22:43.985Z,1024.51
2018-02-24T09:23:53.725Z,1024.63
2018-02-24T09:25:03.463Z,1024.56
2018-02-24T09:26:12.922Z,1024.52
2018-02-24T09:27:22.632Z,1024.53
2018-02-24T09:28:32.596Z,1024.59
2018-02-24T09:29:42.556Z,1024.47
2018-02-24T09:30:52.307Z,1024.48
2018-02-24T09:32:01.761Z,1024.5
2018-02-24T09:33:11.724Z,1024.51
2018-02-24T09:34:20.948Z,1024.51
2018-02-24T09:35:30.411Z,1024.5
2018-02-24T09:36:40.153Z,1024.54
2018-02-24T09:37:49.861Z,1024.54
2018-02-24T09:38:59.594Z,1024.44
2018-02-24T09:40:09.062Z,1024.43
2018-02-24T09:41:18.783Z,1024.48
2018-02-24T09:42:28.765Z,1024.47
2018-02-24T09:43:38.742Z,1024.46
2018-02-24T09:44:48.483Z,1024.49
2018-02-24T09:45:57.681Z,1024.51
2018-02-24T09:47:07.646Z,1024.48
2018-02-24T09:48:17.625Z,1024.52
2018-02-24T09:49:27.341Z,1024.56
2018-02-24T09:50:37.318Z,1024.57
2018-02-24T09:51:47.302Z,1024.5
2018-02-24T09:52:57.033Z,1024.57
2018-02-24T09:54:07.016Z,1024.44
2018-02-24T09:55:16.492Z,1024.49
2018-02-24T09:56:25.959Z,1024.55
2018-02-24T09:57:35.931Z,1024.51
2018-02-24T09:58:45.677Z,1024.52
2018-02-24T09:59:55.681Z,1024.53
2018-02-24T10:01:05.140Z,1024.47
2018-02-24T10:02:15.120Z,1024.48
2018-02-24T10:03:25.103Z,1024.48
2018-02-24T10:04:35.068Z,1024.45
2018-02-24T10:05:45.055Z,1024.55
2018-02-24T10:06:55.021Z,1024.52
2018-02-24T10:08:04.992Z,1024.53
2018-02-24T10:09:14.733Z,1024.52
2018-02-24T10:10:24.498Z,1024.51
2018-02-24T10:11:33.947Z,1024.49
2018-02-24T10:12:43.410Z,1024.55
2018-02-24T10:13:53.130Z,1024.51
2018-02-24T10:15:03.162Z,1024.5
2018-02-24T10:16:12.634Z,1024.52
2018-02-24T10:17:22.595Z,1024.48
2018-02-24T10:18:32.297Z,1024.48
2018-02-24T10:19:42.293Z,1024.39
2018-02-24T10:20:51.756Z,1024.46
2018-02-24T10:22:00.945Z,1024.49
2018-02-24T10:23:10.395Z,1024.45
2018-02-24T10:24:20.103Z,1024.49
2018-02-24T10:25:29.849Z,1024.5
2018-02-24T10:26:39.551Z,1024.47
2018-02-24T10:27:49.529Z,1024.48
2018-02-24T10:28:59.494Z,1024.45
2018-02-24T10:30:08.960Z,1024.49
2018-02-24T10:31:18.936Z,1024.5
2018-02-24T10:32:28.961Z,1024.59
2018-02-24T10:33:38.676Z,1024.5
2018-02-24T10:34:48.686Z,1024.54
2018-02-24T10:35:58.201Z,1024.51
2018-02-24T10:37:07.916Z,1024.58
2018-02-24T10:38:17.889Z,1024.53
2018-02-24T10:39:27.851Z,1024.62
2018-02-24T10:40:37.852Z,1024.58
2018-02-24T10:41:47.838Z,1024.6
2018-02-24T10:42:57.815Z,1024.65
2018-02-24T10:44:07.560Z,1024.59
2018-02-24T10:45:17.307Z,1024.53
2018-02-24T10:46:27.080Z,1024.59
2018-02-24T10:47:37.068Z,1024.56
2018-02-24T10:48:46.782Z,1024.56
2018-02-24T10:49:56.769Z,1024.52
2018-02-24T10:51:06.235Z,1024.54
2018-02-24T10:52:15.439Z,1024.54
2018-02-24T10:53:25.400Z,1024.52
2018-02-24T10:54:35.408Z,1024.45
2018-02-24T10:55:45.128Z,1024.55
2018-02-24T10:56:54.627Z,1024.6
2018-02-24T10:58:04.625Z,1024.54
2018-02-24T10:59:14.620Z,1024.48
2018-02-24T11:00:24.612Z,1024.45
2018-02-24T11:01:34.577Z,1024.57
2018-02-24T11:02:44.302Z,1024.53
2018-02-24T11:03:54.323Z,1024.52
2018-02-24T11:05:04.258Z,1024.5
2018-02-24T11:06:14.243Z,1024.52
2018-02-24T11:07:24.247Z,1024.53
2018-02-24T11:08:33.963Z,1024.61
2018-02-24T11:09:43.694Z,1024.48
2018-02-24T11:10:53.696Z,1024.48
2018-02-24T11:12:03.423Z,1024.46
2018-02-24T11:13:12.629Z,1024.55
2018-02-24T11:14:22.103Z,1024.48
2018-02-24T11:15:31.565Z,1024.52
2018-02-24T11:16:40.768Z,1024.51
2018-02-24T11:17:50.237Z,1024.5
2018-02-24T11:18:59.960Z,1024.46
2018-02-24T11:20:09.934Z,1024.48
2018-02-24T11:21:19.698Z,1024.44
2018-02-24T11:22:29.707Z,1024.48
2018-02-24T11:23:39.431Z,1024.43
2018-02-24T11:24:49.415Z,1024.39
2018-02-24T11:25:59.127Z,1024.51
2018-02-24T11:27:08.864Z,1024.41
2018-02-24T11:28:18.065Z,1024.37
2018-02-24T11:29:27.786Z,1024.34
2018-02-24T11:30:37.269Z,1024.36
2018-02-24T11:31:47.234Z,1024.37
2018-02-24T11:32:56.446Z,1024.4
2018-02-24T11:34:06.445Z,1024.37
2018-02-24T11:35:16.468Z,1024.38
2018-02-24T11:36:26.459Z,1024.36
2018-02-24T11:37:36.668Z,1024.35
2018-02-24T11:38:46.394Z,1024.36
2018-02-24T11:39:55.852Z,1024.36
2018-02-24T11:41:05.829Z,1024.38
2018-02-24T11:42:15.551Z,1024.38
2018-02-24T11:43:25.535Z,1024.4
2018-02-24T11:44:35.594Z,1024.37
2018-02-24T11:45:45.564Z,1024.4
2018-02-24T11:46:55.288Z,1024.35
2018-02-24T11:48:05.000Z,1024.27
2018-02-24T11:49:14.449Z,1024.39
2018-02-24T11:50:24.431Z,1024.47
2018-02-24T11:51:33.881Z,1024.43
2018-02-24T11:52:43.598Z,1024.44
2018-02-24T11:53:53.347Z,1024.47
2018-02-24T11:55:03.330Z,1024.41
2018-02-24T11:56:13.037Z,1024.41
2018-02-24T11:57:23.019Z,1024.49
2018-02-24T11:58:32.768Z,1024.44
2018-02-24T11:59:42.727Z,1024.51
2018-02-24T12:00:51.914Z,1024.4
2018-02-24T12:02:01.628Z,1024.39
2018-02-24T12:03:11.356Z,1024.42
2018-02-24T12:04:21.193Z,1024.43
2018-02-24T12:05:31.162Z,1024.4
2018-02-24T12:06:40.902Z,1024.46
2018-02-24T12:07:50.620Z,1024.45
2018-02-24T12:09:00.615Z,1024.42
2018-02-24T12:10:10.598Z,1024.46
2018-02-24T12:11:20.357Z,1024.48
2018-02-24T12:12:30.343Z,1024.47
2018-02-24T12:13:39.830Z,1024.23
2018-02-24T12:14:49.936Z,1024.32
2018-02-24T12:15:59.930Z,1024.39
2018-02-24T12:17:09.900Z,1024.36
2018-02-24T12:18:19.892Z,1024.44
2018-02-24T12:19:29.601Z,1024.45
2018-02-24T12:20:39.056Z,1024.38
2018-02-24T12:21:48.778Z,1024.39
2018-02-24T12:22:58.230Z,1024.36
2018-02-24T12:24:08.206Z,1024.35
2018-02-24T12:25:17.667Z,1024.44
2018-02-24T12:26:27.129Z,1024.42
2018-02-24T12:27:37.118Z,1024.42
2018-02-24T12:28:47.123Z,1024.47
2018-02-24T12:29:56.843Z,1024.35
2018-02-24T12:31:06.815Z,1024.3
2018-02-24T12:32:16.789Z,1024.32
2018-02-24T12:33:26.773Z,1024.38
2018-02-24T12:34:36.775Z,1024.44
2018-02-24T12:35:46.492Z,1024.39
2018-02-24T12:36:56.199Z,1024.42
2018-02-24T12:38:05.919Z,1024.39
2018-02-24T12:39:15.695Z,1024.41
2018-02-24T12:40:25.657Z,1024.39
2018-02-24T12:41:35.113Z,1024.34
2018-02-24T12:42:44.838Z,1024.47
2018-02-24T12:43:54.834Z,1024.51
2018-02-24T12:45:04.046Z,1024.52
2018-02-24T12:46:14.067Z,1024.43
2018-02-24T12:47:24.064Z,1024.5
2018-02-24T12:48:33.782Z,1024.39
2018-02-24T12:49:43.768Z,1024.42
2018-02-24T12:50:52.980Z,1024.52
2018-02-24T12:52:03.064Z,1024.45
2018-02-24T12:53:13.037Z,1024.48
2018-02-24T12:54:23.009Z,1024.54
2018-02-24T12:55:32.728Z,1024.58
2018-02-24T12:56:42.177Z,1024.52
2018-02-24T12:57:51.891Z,1024.48
2018-02-24T12:59:01.337Z,1024.42
2018-02-24T13:00:11.319Z,1024.44
2018-02-24T13:01:21.026Z,1024.37
2018-02-24T13:02:30.743Z,1024.46
2018-02-24T13:03:40.720Z,1024.41
2018-02-24T13:04:50.697Z,1024.42
2018-02-24T13:06:00.421Z,1024.42
2018-02-24T13:07:09.944Z,1024.41
2018-02-24T13:08:19.684Z,1024.49
2018-02-24T13:09:29.152Z,1024.46
2018-02-24T13:10:38.862Z,1024.49
2018-02-24T13:11:48.869Z,1024.42
2018-02-24T13:12:58.074Z,1024.49
2018-02-24T13:14:07.792Z,1024.46
2018-02-24T13:15:17.255Z,1024.53
2018-02-24T13:16:26.724Z,1024.44
2018-02-24T13:17:36.439Z,1024.35
2018-02-24T13:18:46.405Z,1024.5
2018-02-24T13:19:55.858Z,1024.44
2018-02-24T13:21:05.986Z,1024.48
2018-02-24T13:22:15.431Z,1024.51
2018-02-24T13:23:25.409Z,1024.48
2018-02-24T13:24:35.126Z,1024.54
2018-02-24T13:25:45.098Z,1024.55
2018-02-24T13:26:54.547Z,1024.52
2018-02-24T13:28:04.255Z,1024.54
2018-02-24T13:29:13.452Z,1024.63
2018-02-24T13:30:23.428Z,1024.61
2018-02-24T13:31:33.129Z,1024.66
2018-02-24T13:32:42.848Z,1024.64
2018-02-24T13:33:52.825Z,1024.66
2018-02-24T13:35:02.557Z,1024.55
2018-02-24T13:36:12.288Z,1024.69
2018-02-24T13:37:22.280Z,1024.63
2018-02-24T13:38:32.521Z,1024.65
2018-02-24T13:39:42.502Z,1024.69
2018-02-24T13:40:52.481Z,1024.69
2018-02-24T13:42:01.675Z,1024.77
2018-02-24T13:43:11.123Z,1024.72
2018-02-24T13:44:21.083Z,1024.73
2018-02-24T13:45:30.800Z,1024.67
2018-02-24T13:46:40.781Z,1024.62
2018-02-24T13:47:50.771Z,1024.64
2018-02-24T13:49:00.490Z,1024.64
2018-02-24T13:50:10.201Z,1024.59
2018-02-24T13:51:20.166Z,1024.69
2018-02-24T13:52:29.883Z,1024.66
2018-02-24T13:53:39.590Z,1024.64
2018-02-24T13:54:49.548Z,1024.61
2018-02-24T13:55:59.015Z,1024.66
2018-02-24T13:57:08.738Z,1024.62
2018-02-24T13:58:18.175Z,1024.56
2018-02-24T13:59:27.130Z,1024.52
2018-02-24T14:00:36.573Z,1024.52
2018-02-24T14:01:46.287Z,1024.59
2018-02-24T14:02:56.303Z,1024.66
2018-02-24T14:04:06.634Z,1024.61
2018-02-24T14:05:16.605Z,1024.7